首页
METAR-TAF:

METAR-TAF

机场 :

巴黎夏尔·戴高乐机场

巴黎戴高乐, 法国

纬度: 49-01N, 经度: 002-32E, 海拔: 118米

当前天气观测

该预报发布于34分钟前的01:00 UTC
风速6节,风向,在西北北转东北之间变化
温度 13°C
湿度 72%
气压 1017 hPa
能见度10公里或以上
1500米以下无云,无积雨云

METAR: LFPG 250100Z 35006KT 320V020 CAVOK 13/08 Q1017 NOSIG

时间: 03:34 (01:34 UTC)

预报

该预报发布于2小时和34分钟前的23:00 UTC
预报有效从25日的 00点(UTC)到 26日的 06点(UTC)
风速8节,风向
能见度10公里或以上
1500米以下无云,无积雨云
几率 40% :
短暂存在
从 25日的 11点(UTC)到 25日的 18点(UTC)
散云层高于3000英尺, 塔状积云.
几率 30% :
短暂存在
从 25日的 13点(UTC)到 25日的 16点(UTC)
能見度: 3000
散云层高于2000英尺, 积雨云.
阵雨

TAF: LFPG 242300Z 2500/2606 35008KT CAVOK TX22/2512Z TN13/2504Z PROB40 TEMPO 2511/2518 SCT030TCU PROB30 TEMPO 2513/2516 3000 SHRA SCT020CB

超过4000个机场的气象观测和天气预报(METAR&TAF报告)。

可查询的气象台以黄色和红色小点在地图上表示。

将鼠标移到小点上方,可查看气象台名称。

然后点击查看天气观测和预报。

如需切换地图:点击带黑十字的绿色按钮放大地图;点击带横线的绿色按钮缩小地图;或者点击绿色箭头查看邻近地区的地图。


METAR-TAF: